Terminal Aerodrome Forecast
Issued by NWS Jackson, MS

Home | Current Version | Previous Version | Text Only | Print | Product List | Glossary On
Versions: 1 2 3 4 5 6 7 8 9 10 11 12 13 14 15 16 17 18 19
000
FTUS44 KJAN 172320
TAFJAN
TAF
KJAN 172320Z 1800/1824 36003KT P6SM VCSH FEW020 BKN060
     FM180500 05003KT P6SM OVC015
     FM180800 05003KT 4SM BR OVC007
     FM181600 08005KT P6SM OVC007
     FM181800 08005KT P6SM OVC015
     FM182200 09005KT P6SM OVC025=

USA.gov is the U.S. government's official web portal to all federal, state and local government web resources and services.